Terminal Aerodrome Forecast
Issued by NWS

Home | Current Version | Previous Version | Text Only | Print | Product List | Glossary On
Versions: 1 2 3 4 5 6 7 8 9 10 11 12 13 14 15 16 17 18 19 20 21 22 23 24 25 26 27 28 29 30 31 32 33
000
FTUS41 KBTV 231736
TAFPBG
TAF
KPBG 231736Z 2318/2418 34015G22KT 6SM -RA OVC012
      TEMPO 2318/2322 5SM -RA BR OVC010
     FM240000 34014G20KT 5SM -RA BR OVC011
     FM241600 34010KT P6SM OVC020=

USA.gov is the U.S. government's official web portal to all federal, state and local government web resources and services.